AirNav   TITAN Aviation Fuels
 
 995 users online  

MN41 Timmers Landing Field Airport
Silver Lake, Minnesota, USA

GOING TO SILVER LAKE?


FAA INFORMATION EFFECTIVE 03 NOVEMBER 2022

Location

FAA Identifier: MN41
Lat/Long: 44-58-24.3395N 094-12-51.0705W
44-58.405658N 094-12.851175W
44.9734276,-94.2141862
(estimated)
Elevation: 1070 ft. / 326 m (estimated)
From city: 5 miles N of SILVER LAKE, MN
Time zone: UTC -6 (UTC -5 during Daylight Saving Time)
Zip code: 55381

Airport Operations

Airport use: Private use. Permission required prior to landing
Activation date: 11/2007
Control tower: no
ARTCC: MINNEAPOLIS CENTER
FSS: PRINCETON FLIGHT SERVICE STATION
Attendance: UNATNDD
Wind indicator: yes
Segmented circle: no

Airport Communications

WX AWOS-3 at HCD (10 nm SW): 118.525 (320-587-3343)
WX AWOS-3 at GYL (14 nm SE): 119.625 (320-864-5830)
WX AWOS-3 at LJF (14 nm NW): 119.65 (320-693-6456)
WX AWOS-3 at MGG (18 nm NE): 128.325 (320-963-3300)
WX AWOS-3PT at CFE (19 nm NE): 120.45 (763-684-0762)

Nearby radio navigation aids

VOR radial/distance  VOR name  Freq  Var
DWNr117/12.3DARWIN VORTAC109.0007E
FCMr284/34.0FLYING CLOUD VOR/DME117.7001E
STCr188/35.2ST CLOUD VOR/DME112.1003E
GEPr248/37.1GOPHER VORTAC117.3006E
BDHr099/39.7WILLMAR VOR/DME113.7004E

Airport Services

Runway Information

Runway 1/19

Dimensions: 1600 x 100 ft. / 488 x 30 m
Surface: turf
RUNWAY 1  RUNWAY 19
Traffic pattern: leftleft

Airport Ownership and Management from official FAA records

Ownership: Privately-owned
Owner: STEVEN TIMMERS
6508 LIMERICK DR
MINNEAPOLIS, MN 55439-1225
Phone 320-327-8454
Manager: STEVEN TIMMERS
6508 LIMERICK DR
MINNEAPOLIS, MN 55439-1225
Phone 320-327-8454

Airport Operational Statistics

Aircraft based on the field: 1
Single engine airplanes: 1
    

Additional Remarks

DO NOT CHART PER MINNESOTA DEPARTMENT OF TRANSPORTATION
FOR CD CTC MINNEAPOLIS ARTCC AT 651-463-5588.

Instrument Procedures

There are no published instrument procedures at MN41.

Some nearby airports with instrument procedures:

KHCD - Hutchinson Municipal Airport-Butler Field (10 nm SW)
KGYL - Glencoe Municipal Airport (14 nm SE)
KLJF - Litchfield Municipal Airport (14 nm NW)
KMGG - Maple Lake Municipal Airport-Bill Mavencamp Sr Field (18 nm NE)
KCFE - Buffalo Municipal Airport (19 nm NE)
 
Loc | Ops | Rwys | IFR | FBO | Links
Com | Nav | Svcs | Stats | Notes
Aerial photo
No photo
 
Sectional chart

 
Airport distance calculator
Flying to Timmers Landing Field Airport? Find the distance to fly.

From to MN41

Sunrise and sunset
Times for 26-Nov-2022
 Local
(UTC-6)
 Zulu
(UTC)
Morning civil twilight06:5712:57
Sunrise07:3013:30
Sunset16:3922:39
Evening civil twilight17:1123:11

Current date and time
Zulu (UTC)  26-Nov-2022 16:30:56
Local (UTC-6)  26-Nov-2022 10:30:56
 
METAR
KHCD 
9nm SW 
261615Z AUTO 18007KT 10SM CLR 06/M02 A2970 RMK AO2 T00621021
KLJF 
14nm NW 
261615Z AUTO 24003KT 10SM CLR 06/M03 A2966 RMK AO2
KGYL 
15nm SE 
261615Z AUTO 19008G16KT 5SM HZ CLR 06/M02 A2969 RMK AO2 T00581020
KMGG 
18nm NE 
261615Z AUTO 19006KT 10SM CLR 06/M03 A2967 RMK AO2 T00631032
KCFE 
19nm NE 
261615Z AUTO 22008KT 10SM CLR 07/M02 A2967 RMK AO2
TAF
KSTC 
35nm N 
261121Z 2612/2712 20010KT P6SM FEW250 FM262000 32010KT P6SM SCT250 FM270300 33010KT P6SM BKN100
NOTAMs
Click for the latest NOTAMs
NOTAMs are issued by the DoD/FAA and will open in a separate window not controlled by AirNav.

 

 
 

Would you like to see your business listed on this page?

 If your business provides an interesting product or service to pilots, flight crews, aircraft, or users of the Timmers Landing Field Airport, you should consider listing it here.  To start the listing process, click on the button below
 
Add a business
 

Other Pages about Timmers Landing Field Airport

Update a link
 
Copyright © AirNav, LLC. All rights reserved. Privacy Policy  Contact